createdAt,value
2023-04-16T00:01:03.977Z,89.95
2023-04-16T00:03:30.877Z,91.05
2023-04-16T00:05:57.743Z,90.88
2023-04-16T00:08:24.729Z,91.96
2023-04-16T00:10:53.502Z,91.73
2023-04-16T00:13:20.386Z,92.33
2023-04-16T00:15:47.170Z,93.10
2023-04-16T00:18:13.786Z,93.17
2023-04-16T00:20:40.572Z,93.03
2023-04-16T00:23:07.282Z,92.67
2023-04-16T00:25:33.966Z,93.22
2023-04-16T00:28:00.687Z,94.17
2023-04-16T00:30:27.427Z,95.42
2023-04-16T00:32:54.156Z,96.35
2023-04-16T00:35:20.931Z,96.40
2023-04-16T00:37:47.624Z,97.11
2023-04-16T00:40:14.396Z,99.46
2023-04-16T00:42:41.402Z,99.79
2023-04-16T00:45:08.999Z,100.00
2023-04-16T00:47:35.831Z,100.00
2023-04-16T00:50:04.505Z,100.00
2023-04-16T00:52:34.625Z,100.00
2023-04-16T00:55:01.564Z,100.00
2023-04-16T00:57:28.338Z,100.00
2023-04-16T00:59:56.433Z,100.00
2023-04-16T01:02:23.274Z,100.00
2023-04-16T01:04:51.689Z,100.00
2023-04-16T01:07:18.241Z,100.00
2023-04-16T01:09:44.895Z,100.00
2023-04-16T01:12:11.636Z,100.00
2023-04-16T01:14:38.416Z,100.00
2023-04-16T01:17:05.191Z,100.00
2023-04-16T01:19:31.876Z,100.00
2023-04-16T01:21:59.228Z,100.00
2023-04-16T01:24:25.915Z,100.00
2023-04-16T01:26:52.708Z,100.00
2023-04-16T01:29:19.476Z,100.00
2023-04-16T01:31:46.827Z,100.00
2023-04-16T01:34:26.585Z,100.00
2023-04-16T01:36:53.294Z,100.00
2023-04-16T01:39:19.954Z,100.00
2023-04-16T01:41:46.677Z,100.00
2023-04-16T01:44:13.349Z,100.00
2023-04-16T01:46:43.714Z,100.00
2023-04-16T01:49:10.833Z,100.00
2023-04-16T01:51:37.729Z,100.00
2023-04-16T01:54:04.601Z,100.00
2023-04-16T01:56:31.305Z,100.00
2023-04-16T01:58:57.984Z,100.00
2023-04-16T02:01:27.938Z,100.00
2023-04-16T02:03:55.514Z,100.00
2023-04-16T02:06:22.272Z,100.00
2023-04-16T02:08:49.160Z,100.00
2023-04-16T02:11:16.018Z,100.00
2023-04-16T02:13:43.185Z,100.00
2023-04-16T02:16:09.981Z,100.00
2023-04-16T02:19:11.959Z,100.00
2023-04-16T02:21:41.759Z,100.00
2023-04-16T02:24:08.486Z,100.00
2023-04-16T02:26:35.819Z,100.00
2023-04-16T02:29:08.510Z,100.00
2023-04-16T02:31:41.548Z,100.00
2023-04-16T02:34:09.701Z,100.00
2023-04-16T02:36:36.645Z,100.00
2023-04-16T02:39:03.546Z,100.00
2023-04-16T02:41:30.520Z,100.00
2023-04-16T02:43:57.309Z,100.00
2023-04-16T02:46:24.297Z,100.00
2023-04-16T02:48:51.199Z,100.00
2023-04-16T02:51:17.831Z,100.00
2023-04-16T02:53:46.121Z,100.00
2023-04-16T02:56:13.436Z,100.00
2023-04-16T02:58:40.243Z,100.00
2023-04-16T03:01:07.139Z,100.00
2023-04-16T03:03:33.946Z,100.00
2023-04-16T03:06:00.649Z,100.00
2023-04-16T03:08:27.595Z,100.00
2023-04-16T03:10:54.296Z,100.00
2023-04-16T03:13:21.045Z,100.00
2023-04-16T03:15:50.808Z,100.00
2023-04-16T03:18:17.794Z,100.00
2023-04-16T03:20:44.541Z,100.00
2023-04-16T03:23:11.592Z,100.00
2023-04-16T03:25:40.565Z,100.00
2023-04-16T03:28:08.876Z,100.00
2023-04-16T03:30:35.933Z,100.00
2023-04-16T03:33:03.717Z,100.00
2023-04-16T03:35:30.452Z,100.00
2023-04-16T03:37:57.189Z,100.00
2023-04-16T03:40:24.006Z,100.00
2023-04-16T03:42:52.295Z,100.00
2023-04-16T03:45:19.076Z,100.00
2023-04-16T03:47:52.480Z,100.00
2023-04-16T03:50:21.960Z,100.00
2023-04-16T03:52:49.504Z,100.00
2023-04-16T03:55:17.498Z,100.00
2023-04-16T03:57:45.135Z,100.00
2023-04-16T04:00:14.311Z,100.00
2023-04-16T04:02:41.289Z,100.00
2023-04-16T04:05:14.733Z,100.00
2023-04-16T04:07:41.781Z,100.00
2023-04-16T04:10:09.365Z,100.00
2023-04-16T04:12:39.302Z,100.00
2023-04-16T04:15:06.608Z,100.00
2023-04-16T04:17:33.304Z,100.00
2023-04-16T04:20:01.884Z,100.00
2023-04-16T04:22:30.877Z,100.00
2023-04-16T04:24:57.575Z,100.00
2023-04-16T04:27:27.344Z,100.00
2023-04-16T04:29:54.103Z,100.00
2023-04-16T04:32:22.063Z,100.00
2023-04-16T04:34:49.291Z,100.00
2023-04-16T04:37:16.028Z,100.00
2023-04-16T04:39:43.836Z,100.00
2023-04-16T04:42:11.586Z,100.00
2023-04-16T04:44:39.341Z,100.00
2023-04-16T04:47:06.586Z,100.00
2023-04-16T04:49:33.263Z,100.00
2023-04-16T04:52:00.055Z,100.00
2023-04-16T04:54:26.834Z,100.00
2023-04-16T04:56:53.744Z,100.00
2023-04-16T04:59:21.489Z,100.00
2023-04-16T05:01:49.015Z,100.00
2023-04-16T05:04:16.237Z,100.00
2023-04-16T05:06:43.311Z,100.00
2023-04-16T05:09:11.935Z,100.00
2023-04-16T05:11:39.310Z,100.00
2023-04-16T05:14:05.986Z,100.00
2023-04-16T05:16:32.719Z,100.00
2023-04-16T05:18:59.385Z,100.00
2023-04-16T05:21:26.505Z,100.00
2023-04-16T05:23:53.952Z,100.00
2023-04-16T05:26:20.822Z,100.00
2023-04-16T05:28:47.470Z,100.00
2023-04-16T05:31:14.311Z,100.00
2023-04-16T05:33:41.062Z,100.00
2023-04-16T05:36:07.813Z,100.00
2023-04-16T05:38:34.525Z,100.00
2023-04-16T05:41:01.189Z,100.00
2023-04-16T05:43:27.927Z,100.00
2023-04-16T05:45:54.616Z,100.00
2023-04-16T05:48:21.360Z,100.00
2023-04-16T05:50:49.234Z,100.00
2023-04-16T05:53:16.446Z,100.00
2023-04-16T05:55:43.144Z,100.00
2023-04-16T05:58:09.817Z,100.00
2023-04-16T06:00:36.689Z,100.00
2023-04-16T06:03:03.771Z,100.00
2023-04-16T06:05:31.060Z,100.00
2023-04-16T06:07:57.772Z,100.00
2023-04-16T06:10:24.469Z,100.00
2023-04-16T06:12:51.268Z,100.00
2023-04-16T06:15:17.994Z,100.00
2023-04-16T06:17:44.662Z,100.00
2023-04-16T06:20:12.263Z,100.00
2023-04-16T06:22:39.002Z,100.00
2023-04-16T06:25:06.209Z,100.00
2023-04-16T06:27:32.851Z,100.00
2023-04-16T06:29:59.601Z,100.00
2023-04-16T06:32:26.503Z,100.00
2023-04-16T06:34:53.285Z,100.00
2023-04-16T06:37:19.934Z,100.00
2023-04-16T06:39:46.645Z,100.00
2023-04-16T06:42:13.410Z,100.00
2023-04-16T06:44:40.067Z,100.00
2023-04-16T06:47:06.789Z,100.00
2023-04-16T06:49:33.577Z,100.00
2023-04-16T06:52:00.378Z,100.00
2023-04-16T06:54:27.118Z,100.00
2023-04-16T06:56:53.758Z,100.00
2023-04-16T06:59:20.453Z,100.00
2023-04-16T07:01:47.369Z,100.00
2023-04-16T07:04:14.445Z,100.00
2023-04-16T07:06:41.225Z,100.00
2023-04-16T07:09:08.086Z,100.00
2023-04-16T07:11:35.562Z,100.00
2023-04-16T07:14:02.340Z,100.00
2023-04-16T07:16:29.017Z,100.00
2023-04-16T07:18:55.761Z,100.00
2023-04-16T07:21:22.642Z,100.00
2023-04-16T07:23:49.352Z,100.00
2023-04-16T07:26:16.077Z,100.00
2023-04-16T07:28:42.889Z,100.00
2023-04-16T07:31:09.574Z,100.00
2023-04-16T07:33:36.480Z,100.00
2023-04-16T07:36:03.225Z,100.00
2023-04-16T07:38:29.871Z,100.00
2023-04-16T07:40:56.997Z,100.00
2023-04-16T07:43:23.701Z,100.00
2023-04-16T07:45:50.601Z,100.00
2023-04-16T07:48:17.269Z,100.00
2023-04-16T07:50:43.984Z,100.00
2023-04-16T07:53:10.635Z,100.00
2023-04-16T07:55:37.406Z,100.00
2023-04-16T07:58:04.080Z,100.00
2023-04-16T08:00:30.767Z,100.00
2023-04-16T08:02:57.593Z,100.00
2023-04-16T08:05:24.479Z,100.00
2023-04-16T08:07:51.143Z,100.00
2023-04-16T08:10:17.922Z,100.00
2023-04-16T08:12:44.625Z,100.00
2023-04-16T08:15:11.605Z,100.00
2023-04-16T08:17:38.816Z,100.00
2023-04-16T08:20:06.474Z,100.00
2023-04-16T08:22:33.698Z,100.00
2023-04-16T08:25:00.631Z,100.00
2023-04-16T08:27:27.333Z,100.00
2023-04-16T08:29:54.106Z,100.00
2023-04-16T08:32:20.965Z,100.00
2023-04-16T08:34:47.800Z,100.00
2023-04-16T08:37:14.509Z,100.00
2023-04-16T08:39:41.378Z,100.00
2023-04-16T08:42:18.469Z,100.00
2023-04-16T08:44:49.930Z,100.00
2023-04-16T08:47:16.850Z,100.00
2023-04-16T08:49:46.161Z,100.00
2023-04-16T08:52:19.895Z,100.00
2023-04-16T08:54:57.382Z,100.00
2023-04-16T08:57:30.512Z,100.00
2023-04-16T08:59:58.297Z,100.00
2023-04-16T09:02:26.394Z,100.00
2023-04-16T09:04:54.012Z,100.00
2023-04-16T09:07:21.953Z,100.00
2023-04-16T09:09:49.786Z,100.00
2023-04-16T09:12:17.424Z,100.00
2023-04-16T09:14:49.522Z,100.00
2023-04-16T09:17:16.925Z,100.00
2023-04-16T09:19:44.244Z,100.00
2023-04-16T09:22:11.773Z,100.00
2023-04-16T09:24:38.817Z,100.00
2023-04-16T09:27:06.047Z,100.00
2023-04-16T09:29:39.228Z,100.00
2023-04-16T09:32:07.837Z,100.00
2023-04-16T09:34:35.955Z,100.00
2023-04-16T09:37:22.961Z,100.00
2023-04-16T09:40:01.047Z,100.00
2023-04-16T09:42:29.657Z,100.00
2023-04-16T09:44:59.384Z,100.00
2023-04-16T09:47:40.024Z,100.00
2023-04-16T09:50:09.608Z,100.00
2023-04-16T09:52:40.936Z,100.00
2023-04-16T09:55:07.878Z,100.00
2023-04-16T09:57:38.939Z,100.00
2023-04-16T10:00:10.471Z,100.00
2023-04-16T10:02:42.004Z,100.00
2023-04-16T10:05:09.647Z,100.00
2023-04-16T10:07:37.720Z,100.00
2023-04-16T10:10:04.999Z,100.00
2023-04-16T10:12:32.889Z,100.00
2023-04-16T10:14:59.841Z,100.00
2023-04-16T10:17:26.794Z,100.00
2023-04-16T10:19:54.745Z,100.00
2023-04-16T10:22:21.437Z,100.00
2023-04-16T10:24:48.827Z,100.00
2023-04-16T10:27:17.253Z,100.00
2023-04-16T10:29:44.671Z,100.00
2023-04-16T10:32:12.198Z,100.00
2023-04-16T10:34:39.163Z,100.00
2023-04-16T10:37:05.863Z,100.00
2023-04-16T10:39:37.565Z,100.00
2023-04-16T10:42:22.370Z,100.00
2023-04-16T10:44:49.063Z,100.00
2023-04-16T10:47:16.141Z,100.00
2023-04-16T10:49:43.937Z,100.00
2023-04-16T10:52:13.717Z,100.00
2023-04-16T10:54:41.280Z,100.00
2023-04-16T10:57:17.821Z,100.00
2023-04-16T10:59:44.829Z,100.00
2023-04-16T11:02:17.660Z,100.00
2023-04-16T11:04:46.471Z,100.00
2023-04-16T11:07:19.371Z,100.00
2023-04-16T11:09:50.412Z,100.00
2023-04-16T11:12:34.710Z,100.00
2023-04-16T11:15:10.052Z,100.00
2023-04-16T11:17:40.885Z,100.00
2023-04-16T11:20:18.911Z,100.00
2023-04-16T11:22:50.952Z,100.00
2023-04-16T11:25:25.231Z,100.00
2023-04-16T11:27:52.903Z,100.00
2023-04-16T11:30:31.955Z,100.00
2023-04-16T11:32:58.721Z,100.00
2023-04-16T11:35:25.499Z,100.00
2023-04-16T11:37:57.088Z,100.00
2023-04-16T11:40:24.504Z,100.00
2023-04-16T11:42:51.224Z,100.00
2023-04-16T11:45:19.442Z,100.00
2023-04-16T11:47:55.489Z,100.00
2023-04-16T11:50:27.688Z,100.00
2023-04-16T11:53:03.411Z,100.00
2023-04-16T11:55:30.314Z,100.00
2023-04-16T11:57:57.082Z,100.00
2023-04-16T12:00:24.581Z,100.00
2023-04-16T12:02:55.632Z,100.00
2023-04-16T12:05:31.923Z,100.00
2023-04-16T12:07:59.949Z,100.00
2023-04-16T12:10:27.361Z,100.00
2023-04-16T12:12:54.209Z,100.00
2023-04-16T12:15:21.000Z,100.00
2023-04-16T12:17:48.806Z,100.00
2023-04-16T12:20:16.229Z,100.00
2023-04-16T12:22:47.930Z,100.00
2023-04-16T12:25:17.001Z,100.00
2023-04-16T12:27:50.714Z,100.00
2023-04-16T12:30:22.416Z,100.00
2023-04-16T12:32:52.374Z,100.00
2023-04-16T12:35:41.889Z,100.00
2023-04-16T12:38:08.580Z,100.00
2023-04-16T12:40:36.146Z,100.00
2023-04-16T12:43:02.999Z,100.00
2023-04-16T12:45:29.793Z,100.00
2023-04-16T12:47:57.486Z,100.00
2023-04-16T12:50:24.296Z,100.00
2023-04-16T12:52:51.069Z,100.00
2023-04-16T12:55:17.869Z,100.00
2023-04-16T12:57:44.758Z,100.00
2023-04-16T13:00:12.641Z,100.00
2023-04-16T13:02:40.009Z,100.00
2023-04-16T13:05:07.983Z,100.00
2023-04-16T13:07:34.800Z,100.00
2023-04-16T13:10:01.500Z,100.00
2023-04-16T13:12:28.510Z,100.00
2023-04-16T13:14:55.960Z,100.00
2023-04-16T13:17:22.754Z,100.00
2023-04-16T13:19:49.573Z,100.00
2023-04-16T13:22:16.462Z,100.00
2023-04-16T13:24:43.185Z,100.00
2023-04-16T13:27:09.879Z,100.00
2023-04-16T13:29:36.738Z,100.00
2023-04-16T13:32:04.247Z,100.00
2023-04-16T13:34:32.735Z,100.00
2023-04-16T13:36:59.425Z,100.00
2023-04-16T13:39:26.191Z,100.00
2023-04-16T13:41:52.881Z,100.00
2023-04-16T13:44:19.651Z,100.00
2023-04-16T13:46:47.885Z,100.00
2023-04-16T13:49:14.982Z,100.00
2023-04-16T13:51:44.882Z,100.00
2023-04-16T13:54:11.693Z,100.00
2023-04-16T13:56:38.587Z,100.00
2023-04-16T13:59:05.386Z,100.00
2023-04-16T14:01:32.220Z,100.00
2023-04-16T14:04:00.344Z,100.00
2023-04-16T14:06:27.973Z,100.00
2023-04-16T14:08:54.657Z,100.00
2023-04-16T14:11:21.375Z,100.00
2023-04-16T14:13:48.059Z,100.00
2023-04-16T14:16:14.873Z,100.00
2023-04-16T14:18:42.489Z,100.00
2023-04-16T14:21:09.489Z,100.00
2023-04-16T14:23:36.258Z,100.00
2023-04-16T14:26:03.716Z,100.00
2023-04-16T14:28:30.488Z,100.00
2023-04-16T14:30:57.212Z,100.00
2023-04-16T14:33:23.950Z,100.00
2023-04-16T14:35:51.441Z,100.00
2023-04-16T14:38:18.230Z,100.00
2023-04-16T14:40:45.097Z,100.00
2023-04-16T14:43:11.831Z,100.00
2023-04-16T14:45:39.067Z,100.00
2023-04-16T14:48:06.315Z,100.00
2023-04-16T14:50:37.975Z,100.00
2023-04-16T14:53:05.623Z,100.00
2023-04-16T14:55:32.725Z,100.00
2023-04-16T14:57:59.943Z,100.00
2023-04-16T15:00:27.577Z,100.00
2023-04-16T15:02:55.389Z,100.00
2023-04-16T15:05:22.325Z,100.00
2023-04-16T15:07:49.061Z,100.00
2023-04-16T15:10:15.789Z,100.00
2023-04-16T15:12:42.513Z,100.00
2023-04-16T15:15:09.787Z,100.00
2023-04-16T15:17:36.613Z,100.00
2023-04-16T15:20:08.160Z,100.00
2023-04-16T15:22:35.264Z,100.00
2023-04-16T15:25:02.273Z,100.00
2023-04-16T15:27:28.910Z,100.00
2023-04-16T15:29:55.742Z,100.00
2023-04-16T15:32:22.801Z,100.00
2023-04-16T15:34:49.515Z,100.00
2023-04-16T15:37:16.514Z,100.00
2023-04-16T15:39:43.266Z,100.00
2023-04-16T15:42:11.372Z,100.00
2023-04-16T15:44:38.028Z,100.00
2023-04-16T15:47:06.375Z,100.00
2023-04-16T15:49:33.089Z,100.00
2023-04-16T15:52:00.520Z,100.00
2023-04-16T15:54:27.259Z,100.00
2023-04-16T15:56:53.976Z,100.00
2023-04-16T15:59:20.650Z,100.00
2023-04-16T16:01:47.404Z,100.00
2023-04-16T16:04:14.335Z,100.00
2023-04-16T16:06:41.875Z,100.00
2023-04-16T16:09:09.061Z,100.00
2023-04-16T16:11:37.528Z,100.00
2023-04-16T16:14:04.251Z,100.00
2023-04-16T16:16:31.733Z,100.00
2023-04-16T16:18:58.443Z,100.00
2023-04-16T16:21:25.113Z,100.00
2023-04-16T16:23:51.793Z,100.00
2023-04-16T16:26:18.686Z,100.00
2023-04-16T16:28:45.951Z,100.00
2023-04-16T16:31:12.738Z,100.00
2023-04-16T16:33:40.585Z,100.00
2023-04-16T16:36:11.622Z,100.00
2023-04-16T16:38:40.171Z,100.00
2023-04-16T16:41:07.446Z,100.00
2023-04-16T16:43:36.324Z,100.00
2023-04-16T16:46:03.120Z,100.00
2023-04-16T16:48:29.790Z,100.00
2023-04-16T16:50:56.510Z,100.00
2023-04-16T16:53:23.195Z,100.00
2023-04-16T16:55:49.993Z,100.00
2023-04-16T16:58:16.694Z,100.00
2023-04-16T17:00:43.426Z,100.00
2023-04-16T17:03:10.433Z,100.00
2023-04-16T17:05:37.217Z,100.00
2023-04-16T17:08:04.043Z,100.00
2023-04-16T17:10:32.202Z,100.00
2023-04-16T17:12:58.907Z,100.00
2023-04-16T17:15:25.883Z,100.00
2023-04-16T17:17:52.613Z,100.00
2023-04-16T17:20:19.961Z,100.00
2023-04-16T17:22:46.741Z,100.00
2023-04-16T17:25:13.871Z,100.00
2023-04-16T17:27:40.800Z,100.00
2023-04-16T17:30:08.228Z,100.00
2023-04-16T17:32:35.046Z,100.00
2023-04-16T17:35:04.335Z,100.00
2023-04-16T17:37:31.477Z,100.00
2023-04-16T17:39:58.158Z,100.00
2023-04-16T17:42:24.954Z,100.00
2023-04-16T17:44:51.911Z,100.00
2023-04-16T17:47:18.610Z,100.00
2023-04-16T17:49:45.386Z,100.00
2023-04-16T17:52:12.080Z,100.00
2023-04-16T17:54:38.722Z,100.00
2023-04-16T17:57:05.455Z,100.00
2023-04-16T17:59:32.152Z,100.00
2023-04-16T18:01:58.973Z,100.00
2023-04-16T18:04:25.922Z,100.00
2023-04-16T18:06:52.712Z,100.00
2023-04-16T18:09:19.646Z,100.00
2023-04-16T18:11:46.375Z,100.00
2023-04-16T18:14:19.900Z,100.00
2023-04-16T18:16:47.982Z,100.00
2023-04-16T18:19:15.913Z,100.00
2023-04-16T18:21:43.144Z,100.00
2023-04-16T18:24:10.433Z,100.00
2023-04-16T18:26:37.767Z,100.00
2023-04-16T18:29:05.503Z,100.00
2023-04-16T18:31:32.408Z,100.00
2023-04-16T18:33:59.286Z,100.00
2023-04-16T18:36:27.224Z,100.00
2023-04-16T18:39:00.882Z,100.00
2023-04-16T18:41:29.000Z,100.00
2023-04-16T18:43:55.819Z,100.00
2023-04-16T18:46:22.672Z,100.00
2023-04-16T18:48:49.404Z,100.00
2023-04-16T18:51:16.710Z,100.00
2023-04-16T18:53:45.604Z,100.00
2023-04-16T18:56:12.886Z,100.00
2023-04-16T18:58:39.637Z,100.00
2023-04-16T19:01:11.029Z,100.00
2023-04-16T19:03:38.456Z,100.00
2023-04-16T19:06:06.122Z,100.00
2023-04-16T19:08:33.119Z,100.00
2023-04-16T19:11:00.104Z,100.00
2023-04-16T19:13:26.808Z,100.00
2023-04-16T19:16:00.957Z,100.00
2023-04-16T19:18:28.052Z,100.00
2023-04-16T19:21:01.264Z,100.00
2023-04-16T19:23:28.523Z,100.00
2023-04-16T19:25:58.613Z,100.00
2023-04-16T19:28:25.597Z,100.00
2023-04-16T19:30:53.555Z,100.00
2023-04-16T19:33:20.180Z,100.00
2023-04-16T19:35:47.273Z,100.00
2023-04-16T19:38:14.102Z,100.00
2023-04-16T19:40:43.910Z,100.00
2023-04-16T19:43:10.696Z,100.00
2023-04-16T19:45:45.354Z,100.00
2023-04-16T19:48:12.808Z,100.00
2023-04-16T19:50:43.010Z,100.00
2023-04-16T19:53:10.876Z,100.00
2023-04-16T19:55:41.335Z,100.00
2023-04-16T19:58:08.426Z,100.00
2023-04-16T20:00:38.229Z,100.00
2023-04-16T20:03:05.417Z,100.00
2023-04-16T20:05:32.275Z,100.00
2023-04-16T20:07:59.131Z,100.00
2023-04-16T20:10:26.567Z,100.00
2023-04-16T20:12:53.383Z,100.00
2023-04-16T20:15:20.278Z,100.00
2023-04-16T20:17:47.101Z,100.00
2023-04-16T20:20:15.802Z,100.00
2023-04-16T20:22:43.466Z,100.00
2023-04-16T20:25:10.305Z,100.00
2023-04-16T20:27:37.096Z,100.00
2023-04-16T20:30:05.478Z,100.00
2023-04-16T20:32:32.374Z,100.00
2023-04-16T20:34:59.719Z,100.00
2023-04-16T20:37:28.776Z,100.00
2023-04-16T20:39:56.295Z,100.00
2023-04-16T20:42:26.159Z,100.00
2023-04-16T20:44:56.281Z,100.00
2023-04-16T20:47:23.903Z,100.00
2023-04-16T20:49:52.660Z,100.00
2023-04-16T20:52:19.594Z,100.00
2023-04-16T20:54:47.182Z,100.00
2023-04-16T20:57:14.023Z,100.00
2023-04-16T20:59:40.948Z,100.00
2023-04-16T21:02:07.983Z,100.00
2023-04-16T21:04:34.822Z,100.00
2023-04-16T21:07:03.977Z,100.00
2023-04-16T21:09:31.394Z,100.00
2023-04-16T21:11:58.100Z,100.00
2023-04-16T21:14:24.871Z,100.00
2023-04-16T21:16:51.509Z,100.00
2023-04-16T21:19:18.292Z,100.00
2023-04-16T21:21:45.020Z,100.00
2023-04-16T21:24:11.647Z,100.00
2023-04-16T21:26:38.300Z,100.00
2023-04-16T21:29:05.023Z,100.00
2023-04-16T21:31:31.803Z,100.00
2023-04-16T21:33:58.603Z,100.00
2023-04-16T21:36:27.490Z,100.00
2023-04-16T21:38:54.184Z,100.00
2023-04-16T21:41:21.161Z,100.00
2023-04-16T21:43:47.851Z,100.00
2023-04-16T21:46:14.704Z,100.00
2023-04-16T21:48:41.447Z,100.00
2023-04-16T21:51:08.659Z,100.00
2023-04-16T21:53:35.416Z,100.00
2023-04-16T21:56:02.431Z,100.00
2023-04-16T21:58:29.115Z,100.00
2023-04-16T22:00:55.956Z,100.00
2023-04-16T22:03:30.469Z,100.00
2023-04-16T22:06:01.028Z,100.00
2023-04-16T22:08:29.232Z,100.00
2023-04-16T22:10:59.639Z,100.00
2023-04-16T22:13:27.212Z,100.00
2023-04-16T22:15:55.102Z,100.00
2023-04-16T22:18:25.632Z,100.00
2023-04-16T22:20:56.226Z,100.00
2023-04-16T22:23:26.204Z,100.00
2023-04-16T22:25:54.973Z,100.00
2023-04-16T22:28:21.912Z,100.00
2023-04-16T22:30:48.856Z,100.00
2023-04-16T22:33:15.694Z,100.00
2023-04-16T22:35:42.511Z,100.00
2023-04-16T22:38:10.080Z,100.00
2023-04-16T22:40:36.844Z,100.00
2023-04-16T22:43:04.350Z,100.00
2023-04-16T22:45:31.134Z,100.00
2023-04-16T22:47:57.868Z,100.00
2023-04-16T22:50:24.637Z,100.00
2023-04-16T22:52:51.303Z,100.00
2023-04-16T22:55:18.231Z,100.00
2023-04-16T22:57:44.921Z,100.00
2023-04-16T23:00:15.995Z,100.00
2023-04-16T23:02:43.237Z,100.00
2023-04-16T23:05:10.392Z,100.00
2023-04-16T23:07:37.171Z,100.00
2023-04-16T23:10:04.203Z,100.00
2023-04-16T23:12:30.945Z,100.00
2023-04-16T23:14:58.339Z,100.00
2023-04-16T23:17:25.121Z,100.00
2023-04-16T23:19:51.893Z,100.00
2023-04-16T23:22:18.590Z,100.00
2023-04-16T23:24:45.764Z,100.00
2023-04-16T23:27:12.499Z,100.00
2023-04-16T23:29:39.252Z,100.00
2023-04-16T23:32:06.018Z,100.00
2023-04-16T23:34:32.698Z,100.00
2023-04-16T23:36:59.376Z,100.00
2023-04-16T23:39:26.206Z,100.00
2023-04-16T23:41:52.841Z,100.00
2023-04-16T23:44:19.577Z,100.00
2023-04-16T23:46:46.370Z,100.00
2023-04-16T23:49:13.249Z,100.00
2023-04-16T23:51:40.135Z,100.00
2023-04-16T23:54:06.854Z,100.00
2023-04-16T23:56:33.529Z,100.00
2023-04-16T23:59:00.284Z,100.00
